Dallas, Texas
Current Conditions -  °F | °C
As of 4:53 PM on Thursday 18 Dec 2014 (Local Time) from KDAL Reporting Station
Haze Haze  
Wind Chill:   Ceiling: 1000
Heat Index:   Visibility: 5mi
Dew Point:   Wind: 5mph
Humidity: 86%   Direction: 350°N
Pressure: 30.12"   Gusts: NA
Location:  32.78°N, 96.79°W
Report Text: KDAL 182253Z 35004KT 5SM BR OVC010 09/07 A3012 RMK AO2 SLP200 T00940072
Loading
Personal Weather Stations






























Interactive Weather Map New forecast layout! Learn more

10-Day Weather Forecast

Advertisements
Track Severe Weather on mobile